Terminal Aerodrome Forecast
Issued by NWS

Home | Current Version | Previous Version | Text Only | Print | Product List | Glossary On
Versions: 1 2 3 4 5 6 7 8 9 10 11 12 13 14 15 16 17
071
FTUS43 KEAX 191301 AAA
TAFSTJ
TAF AMD
KSTJ 191301Z 1913/2012 VRB02KT 3SM BR SKC
      TEMPO 1913/1914 1SM BR VV002
     FM191400 18008KT P6SM FEW250
     FM200800 18007KT P6SM SCT250 WS020/21035KT=

USA.gov is the U.S. government's official web portal to all federal, state and local government web resources and services.